sensor_id;sensor_type;location;lat;lon;timestamp;temperature;humidity
23377;DHT22;14353;46.070;13.222;2022-11-15T00:01:26;18.90;56.50
23377;DHT22;14353;46.070;13.222;2022-11-15T00:03:55;18.90;56.50
23377;DHT22;14353;46.070;13.222;2022-11-15T00:06:21;18.90;56.50
23377;DHT22;14353;46.070;13.222;2022-11-15T00:08:47;18.90;56.40
23377;DHT22;14353;46.070;13.222;2022-11-15T00:11:19;18.90;56.40
23377;DHT22;14353;46.070;13.222;2022-11-15T00:13:47;18.90;56.50
23377;DHT22;14353;46.070;13.222;2022-11-15T00:16:16;18.90;56.50
23377;DHT22;14353;46.070;13.222;2022-11-15T00:18:45;18.90;56.40
23377;DHT22;14353;46.070;13.222;2022-11-15T00:21:15;18.90;56.40
23377;DHT22;14353;46.070;13.222;2022-11-15T00:23:41;18.90;56.50
23377;DHT22;14353;46.070;13.222;2022-11-15T00:26:13;18.90;56.40
23377;DHT22;14353;46.070;13.222;2022-11-15T00:28:42;18.90;56.40
23377;DHT22;14353;46.070;13.222;2022-11-15T00:31:11;18.90;56.40
23377;DHT22;14353;46.070;13.222;2022-11-15T00:33:37;18.90;56.40
23377;DHT22;14353;46.070;13.222;2022-11-15T00:36:06;18.90;56.40
23377;DHT22;14353;46.070;13.222;2022-11-15T00:38:33;18.90;56.50
23377;DHT22;14353;46.070;13.222;2022-11-15T00:41:00;18.90;56.50
23377;DHT22;14353;46.070;13.222;2022-11-15T00:43:31;18.90;56.40
23377;DHT22;14353;46.070;13.222;2022-11-15T00:45:57;18.90;56.40
23377;DHT22;14353;46.070;13.222;2022-11-15T00:48:23;18.90;56.40
23377;DHT22;14353;46.070;13.222;2022-11-15T00:50:50;18.90;56.50
23377;DHT22;14353;46.070;13.222;2022-11-15T00:53:19;18.90;56.50
23377;DHT22;14353;46.070;13.222;2022-11-15T00:55:50;18.80;56.40
23377;DHT22;14353;46.070;13.222;2022-11-15T00:58:20;18.90;56.50
23377;DHT22;14353;46.070;13.222;2022-11-15T01:00:45;18.90;56.40
23377;DHT22;14353;46.070;13.222;2022-11-15T01:03:11;18.90;56.40
23377;DHT22;14353;46.070;13.222;2022-11-15T01:05:38;18.80;56.40
23377;DHT22;14353;46.070;13.222;2022-11-15T01:08:10;18.90;56.40
23377;DHT22;14353;46.070;13.222;2022-11-15T01:10:37;18.80;56.40
23377;DHT22;14353;46.070;13.222;2022-11-15T01:13:12;18.80;56.40
23377;DHT22;14353;46.070;13.222;2022-11-15T01:15:41;18.80;56.40
23377;DHT22;14353;46.070;13.222;2022-11-15T01:18:09;18.80;56.40
23377;DHT22;14353;46.070;13.222;2022-11-15T01:20:46;18.80;56.40
23377;DHT22;14353;46.070;13.222;2022-11-15T01:23:13;18.80;56.40
23377;DHT22;14353;46.070;13.222;2022-11-15T01:25:42;18.80;56.40
23377;DHT22;14353;46.070;13.222;2022-11-15T01:28:10;18.80;56.40
23377;DHT22;14353;46.070;13.222;2022-11-15T01:30:39;18.80;56.40
23377;DHT22;14353;46.070;13.222;2022-11-15T01:33:13;18.80;56.40
23377;DHT22;14353;46.070;13.222;2022-11-15T01:35:39;18.80;56.40
23377;DHT22;14353;46.070;13.222;2022-11-15T01:38:08;18.80;56.40
23377;DHT22;14353;46.070;13.222;2022-11-15T01:40:34;18.80;56.40
23377;DHT22;14353;46.070;13.222;2022-11-15T01:45:55;18.80;56.40
23377;DHT22;14353;46.070;13.222;2022-11-15T01:48:26;18.80;56.40
23377;DHT22;14353;46.070;13.222;2022-11-15T01:50:55;18.80;56.40
23377;DHT22;14353;46.070;13.222;2022-11-15T01:53:23;18.80;56.40
23377;DHT22;14353;46.070;13.222;2022-11-15T01:55:50;18.80;56.40
23377;DHT22;14353;46.070;13.222;2022-11-15T01:58:25;18.80;56.40
23377;DHT22;14353;46.070;13.222;2022-11-15T02:00:57;18.80;56.40
23377;DHT22;14353;46.070;13.222;2022-11-15T02:03:34;18.80;56.40
23377;DHT22;14353;46.070;13.222;2022-11-15T02:06:03;18.80;56.40
23377;DHT22;14353;46.070;13.222;2022-11-15T02:08:33;18.80;56.40
23377;DHT22;14353;46.070;13.222;2022-11-15T02:11:08;18.80;56.40
23377;DHT22;14353;46.070;13.222;2022-11-15T02:13:42;18.80;56.40
23377;DHT22;14353;46.070;13.222;2022-11-15T02:16:58;18.70;56.30
23377;DHT22;14353;46.070;13.222;2022-11-15T02:28:10;18.70;56.30
23377;DHT22;14353;46.070;13.222;2022-11-15T02:30:47;18.70;56.30
23377;DHT22;14353;46.070;13.222;2022-11-15T02:33:56;18.80;56.30
23377;DHT22;14353;46.070;13.222;2022-11-15T02:39:49;18.70;56.30
23377;DHT22;14353;46.070;13.222;2022-11-15T02:42:27;18.70;56.30
23377;DHT22;14353;46.070;13.222;2022-11-15T02:45:21;18.70;56.30
23377;DHT22;14353;46.070;13.222;2022-11-15T02:47:51;18.70;56.30
23377;DHT22;14353;46.070;13.222;2022-11-15T02:50:21;18.70;56.30
23377;DHT22;14353;46.070;13.222;2022-11-15T02:52:55;18.70;56.30
23377;DHT22;14353;46.070;13.222;2022-11-15T02:55:38;18.70;56.30
23377;DHT22;14353;46.070;13.222;2022-11-15T03:04:29;18.70;56.30
23377;DHT22;14353;46.070;13.222;2022-11-15T03:07:06;18.70;56.30
23377;DHT22;14353;46.070;13.222;2022-11-15T03:12:46;18.70;56.30
23377;DHT22;14353;46.070;13.222;2022-11-15T03:15:38;18.70;56.30
23377;DHT22;14353;46.070;13.222;2022-11-15T03:18:19;18.70;56.20
23377;DHT22;14353;46.070;13.222;2022-11-15T03:20:50;18.70;56.20
23377;DHT22;14353;46.070;13.222;2022-11-15T03:23:17;18.70;56.20
23377;DHT22;14353;46.070;13.222;2022-11-15T03:25:50;18.70;56.30
23377;DHT22;14353;46.070;13.222;2022-11-15T03:28:22;18.60;56.20
23377;DHT22;14353;46.070;13.222;2022-11-15T03:30:52;18.70;56.30
23377;DHT22;14353;46.070;13.222;2022-11-15T03:33:42;18.60;56.20
23377;DHT22;14353;46.070;13.222;2022-11-15T03:36:11;18.70;56.30
23377;DHT22;14353;46.070;13.222;2022-11-15T03:38:44;18.60;56.20
23377;DHT22;14353;46.070;13.222;2022-11-15T03:41:22;18.60;56.20
23377;DHT22;14353;46.070;13.222;2022-11-15T03:47:48;18.60;56.20
23377;DHT22;14353;46.070;13.222;2022-11-15T03:50:18;18.60;56.20
23377;DHT22;14353;46.070;13.222;2022-11-15T03:52:48;18.60;56.20
23377;DHT22;14353;46.070;13.222;2022-11-15T03:55:19;18.60;56.20
23377;DHT22;14353;46.070;13.222;2022-11-15T03:57:57;18.60;56.20
23377;DHT22;14353;46.070;13.222;2022-11-15T04:00:24;18.60;56.20
23377;DHT22;14353;46.070;13.222;2022-11-15T04:02:52;18.60;56.20
23377;DHT22;14353;46.070;13.222;2022-11-15T04:05:21;18.60;56.20
23377;DHT22;14353;46.070;13.222;2022-11-15T04:07:47;18.60;56.10
23377;DHT22;14353;46.070;13.222;2022-11-15T04:10:13;18.60;56.10
23377;DHT22;14353;46.070;13.222;2022-11-15T04:12:40;18.60;56.10
23377;DHT22;14353;46.070;13.222;2022-11-15T04:15:14;18.60;56.20
23377;DHT22;14353;46.070;13.222;2022-11-15T04:17:57;18.60;56.10
23377;DHT22;14353;46.070;13.222;2022-11-15T04:20:29;18.60;56.10
23377;DHT22;14353;46.070;13.222;2022-11-15T04:23:19;18.60;56.10
23377;DHT22;14353;46.070;13.222;2022-11-15T04:26:09;18.60;56.10
23377;DHT22;14353;46.070;13.222;2022-11-15T04:28:36;18.60;56.10
23377;DHT22;14353;46.070;13.222;2022-11-15T04:31:22;18.60;56.10
23377;DHT22;14353;46.070;13.222;2022-11-15T04:33:47;18.60;56.10
23377;DHT22;14353;46.070;13.222;2022-11-15T04:36:16;18.60;56.10
23377;DHT22;14353;46.070;13.222;2022-11-15T04:39:00;18.60;56.10
23377;DHT22;14353;46.070;13.222;2022-11-15T04:41:29;18.60;56.10
23377;DHT22;14353;46.070;13.222;2022-11-15T04:43:55;18.60;56.10
23377;DHT22;14353;46.070;13.222;2022-11-15T04:46:24;18.60;56.10
23377;DHT22;14353;46.070;13.222;2022-11-15T04:48:53;18.60;56.10
23377;DHT22;14353;46.070;13.222;2022-11-15T04:51:19;18.60;56.10
23377;DHT22;14353;46.070;13.222;2022-11-15T04:53:48;18.60;56.10
23377;DHT22;14353;46.070;13.222;2022-11-15T04:56:14;18.60;56.10
23377;DHT22;14353;46.070;13.222;2022-11-15T04:58:40;18.60;56.10
23377;DHT22;14353;46.070;13.222;2022-11-15T05:01:14;18.60;56.10
23377;DHT22;14353;46.070;13.222;2022-11-15T05:03:57;18.50;56.10
23377;DHT22;14353;46.070;13.222;2022-11-15T05:06:48;18.60;56.10
23377;DHT22;14353;46.070;13.222;2022-11-15T05:09:18;18.60;56.10
23377;DHT22;14353;46.070;13.222;2022-11-15T05:11:45;18.60;56.10
23377;DHT22;14353;46.070;13.222;2022-11-15T05:14:13;18.60;56.10
23377;DHT22;14353;46.070;13.222;2022-11-15T05:16:44;18.50;56.00
23377;DHT22;14353;46.070;13.222;2022-11-15T05:19:19;18.50;56.10
23377;DHT22;14353;46.070;13.222;2022-11-15T05:21:46;18.60;56.10
23377;DHT22;14353;46.070;13.222;2022-11-15T05:24:12;18.50;56.00
23377;DHT22;14353;46.070;13.222;2022-11-15T05:26:41;18.50;56.00
23377;DHT22;14353;46.070;13.222;2022-11-15T05:29:10;18.60;56.10
23377;DHT22;14353;46.070;13.222;2022-11-15T05:31:39;18.50;56.00
23377;DHT22;14353;46.070;13.222;2022-11-15T05:34:06;18.50;56.00
23377;DHT22;14353;46.070;13.222;2022-11-15T05:36:36;18.50;56.00
23377;DHT22;14353;46.070;13.222;2022-11-15T05:39:07;18.50;56.10
23377;DHT22;14353;46.070;13.222;2022-11-15T05:41:46;18.50;56.10
23377;DHT22;14353;46.070;13.222;2022-11-15T05:44:14;18.50;56.10
23377;DHT22;14353;46.070;13.222;2022-11-15T05:46:46;18.50;56.10
23377;DHT22;14353;46.070;13.222;2022-11-15T05:49:16;18.50;56.10
23377;DHT22;14353;46.070;13.222;2022-11-15T05:51:44;18.50;56.10
23377;DHT22;14353;46.070;13.222;2022-11-15T05:54:15;18.50;56.10
23377;DHT22;14353;46.070;13.222;2022-11-15T05:56:42;18.50;56.00
23377;DHT22;14353;46.070;13.222;2022-11-15T05:59:14;18.50;55.90
23377;DHT22;14353;46.070;13.222;2022-11-15T06:01:40;18.60;55.90
23377;DHT22;14353;46.070;13.222;2022-11-15T06:04:09;18.60;55.80
23377;DHT22;14353;46.070;13.222;2022-11-15T06:06:38;18.60;55.60
23377;DHT22;14353;46.070;13.222;2022-11-15T06:09:04;18.60;55.60
23377;DHT22;14353;46.070;13.222;2022-11-15T06:11:32;18.60;55.50
23377;DHT22;14353;46.070;13.222;2022-11-15T06:14:00;18.70;55.70
23377;DHT22;14353;46.070;13.222;2022-11-15T06:16:26;18.70;55.60
23377;DHT22;14353;46.070;13.222;2022-11-15T06:18:55;18.70;55.50
23377;DHT22;14353;46.070;13.222;2022-11-15T06:21:21;18.70;55.50
23377;DHT22;14353;46.070;13.222;2022-11-15T06:24:00;18.70;55.50
23377;DHT22;14353;46.070;13.222;2022-11-15T06:26:26;18.70;55.40
23377;DHT22;14353;46.070;13.222;2022-11-15T06:28:52;18.80;55.40
23377;DHT22;14353;46.070;13.222;2022-11-15T06:31:17;18.80;55.40
23377;DHT22;14353;46.070;13.222;2022-11-15T06:33:59;18.80;55.30
23377;DHT22;14353;46.070;13.222;2022-11-15T06:36:28;18.80;55.30
23377;DHT22;14353;46.070;13.222;2022-11-15T06:38:54;18.80;55.30
23377;DHT22;14353;46.070;13.222;2022-11-15T06:41:20;18.80;55.30
23377;DHT22;14353;46.070;13.222;2022-11-15T06:43:49;18.80;55.20
23377;DHT22;14353;46.070;13.222;2022-11-15T06:46:24;18.80;55.20
23377;DHT22;14353;46.070;13.222;2022-11-15T06:48:56;18.90;55.10
23377;DHT22;14353;46.070;13.222;2022-11-15T06:54:38;18.90;55.10
23377;DHT22;14353;46.070;13.222;2022-11-15T07:01:26;18.90;55.10
23377;DHT22;14353;46.070;13.222;2022-11-15T07:04:28;19.00;55.20
23377;DHT22;14353;46.070;13.222;2022-11-15T07:07:30;19.00;55.30
23377;DHT22;14353;46.070;13.222;2022-11-15T07:13:19;19.10;55.20
23377;DHT22;14353;46.070;13.222;2022-11-15T07:20:11;19.10;55.10
23377;DHT22;14353;46.070;13.222;2022-11-15T07:23:16;19.10;55.10
23377;DHT22;14353;46.070;13.222;2022-11-15T07:25:50;19.10;55.10
23377;DHT22;14353;46.070;13.222;2022-11-15T07:31:45;19.20;55.20
23377;DHT22;14353;46.070;13.222;2022-11-15T07:34:17;19.20;55.20
23377;DHT22;14353;46.070;13.222;2022-11-15T07:37:15;19.20;55.20
23377;DHT22;14353;46.070;13.222;2022-11-15T07:46:15;19.30;55.30
23377;DHT22;14353;46.070;13.222;2022-11-15T07:55:46;19.40;55.30
23377;DHT22;14353;46.070;13.222;2022-11-15T08:01:56;19.50;55.30
23377;DHT22;14353;46.070;13.222;2022-11-15T08:04:37;19.50;55.20
23377;DHT22;14353;46.070;13.222;2022-11-15T08:07:15;19.50;55.10
23377;DHT22;14353;46.070;13.222;2022-11-15T08:13:18;19.60;55.00
23377;DHT22;14353;46.070;13.222;2022-11-15T08:16:11;19.60;54.90
23377;DHT22;14353;46.070;13.222;2022-11-15T08:40:28;20.00;54.40
23377;DHT22;14353;46.070;13.222;2022-11-15T08:43:32;20.00;54.40
23377;DHT22;14353;46.070;13.222;2022-11-15T08:46:50;20.00;54.30
23377;DHT22;14353;46.070;13.222;2022-11-15T08:50:00;20.00;54.20
23377;DHT22;14353;46.070;13.222;2022-11-15T08:52:41;20.00;54.10
23377;DHT22;14353;46.070;13.222;2022-11-15T08:55:19;20.10;54.00
23377;DHT22;14353;46.070;13.222;2022-11-15T08:58:19;20.10;54.00
23377;DHT22;14353;46.070;13.222;2022-11-15T09:05:05;20.20;53.90
23377;DHT22;14353;46.070;13.222;2022-11-15T09:08:08;20.30;54.00
23377;DHT22;14353;46.070;13.222;2022-11-15T09:17:13;20.40;54.30
23377;DHT22;14353;46.070;13.222;2022-11-15T09:20:24;20.40;54.50
23377;DHT22;14353;46.070;13.222;2022-11-15T09:23:19;20.40;54.60
23377;DHT22;14353;46.070;13.222;2022-11-15T09:26:07;20.40;54.60
23377;DHT22;14353;46.070;13.222;2022-11-15T09:28:54;20.50;54.70
23377;DHT22;14353;46.070;13.222;2022-11-15T09:31:23;20.50;54.60
23377;DHT22;14353;46.070;13.222;2022-11-15T09:33:58;20.60;54.60
23377;DHT22;14353;46.070;13.222;2022-11-15T09:36:29;20.60;54.60
23377;DHT22;14353;46.070;13.222;2022-11-15T09:39:01;20.70;54.60
23377;DHT22;14353;46.070;13.222;2022-11-15T09:44:29;20.70;54.40
23377;DHT22;14353;46.070;13.222;2022-11-15T09:53:59;20.80;54.30
23377;DHT22;14353;46.070;13.222;2022-11-15T09:56:55;20.90;54.30
23377;DHT22;14353;46.070;13.222;2022-11-15T10:06:38;21.10;54.00
23377;DHT22;14353;46.070;13.222;2022-11-15T10:15:56;21.30;53.90
23377;DHT22;14353;46.070;13.222;2022-11-15T10:21:54;21.40;53.40
23377;DHT22;14353;46.070;13.222;2022-11-15T10:24:34;21.40;53.20
23377;DHT22;14353;46.070;13.222;2022-11-15T10:27:25;21.50;53.20
23377;DHT22;14353;46.070;13.222;2022-11-15T10:29:53;21.50;53.00
23377;DHT22;14353;46.070;13.222;2022-11-15T10:32:22;21.50;52.90
23377;DHT22;14353;46.070;13.222;2022-11-15T10:35:20;21.60;52.70
23377;DHT22;14353;46.070;13.222;2022-11-15T10:37:49;21.60;52.50
23377;DHT22;14353;46.070;13.222;2022-11-15T10:40:29;21.70;52.40
23377;DHT22;14353;46.070;13.222;2022-11-15T10:43:26;21.70;52.30
23377;DHT22;14353;46.070;13.222;2022-11-15T10:45:56;21.70;52.10
23377;DHT22;14353;46.070;13.222;2022-11-15T10:48:45;21.80;51.90
23377;DHT22;14353;46.070;13.222;2022-11-15T10:51:27;21.80;51.80
23377;DHT22;14353;46.070;13.222;2022-11-15T10:53:58;21.90;51.70
23377;DHT22;14353;46.070;13.222;2022-11-15T10:56:37;21.90;51.60
23377;DHT22;14353;46.070;13.222;2022-11-15T10:59:31;22.00;51.40
23377;DHT22;14353;46.070;13.222;2022-11-15T11:02:39;22.00;51.40
23377;DHT22;14353;46.070;13.222;2022-11-15T11:05:40;22.10;51.20
23377;DHT22;14353;46.070;13.222;2022-11-15T11:09:11;22.20;51.10
23377;DHT22;14353;46.070;13.222;2022-11-15T11:11:50;22.30;51.10
23377;DHT22;14353;46.070;13.222;2022-11-15T11:14:33;22.40;50.70
23377;DHT22;14353;46.070;13.222;2022-11-15T11:20:26;22.70;50.00
23377;DHT22;14353;46.070;13.222;2022-11-15T11:23:21;22.90;49.40
23377;DHT22;14353;46.070;13.222;2022-11-15T11:26:09;23.00;49.00
23377;DHT22;14353;46.070;13.222;2022-11-15T11:40:47;23.30;47.20
23377;DHT22;14353;46.070;13.222;2022-11-15T11:46:47;23.20;47.10
23377;DHT22;14353;46.070;13.222;2022-11-15T11:55:29;23.50;46.00
23377;DHT22;14353;46.070;13.222;2022-11-15T12:01:48;23.50;45.80
23377;DHT22;14353;46.070;13.222;2022-11-15T12:07:58;23.10;46.80
23377;DHT22;14353;46.070;13.222;2022-11-15T12:10:33;22.80;46.90
23377;DHT22;14353;46.070;13.222;2022-11-15T12:13:26;22.60;48.30
23377;DHT22;14353;46.070;13.222;2022-11-15T12:26:23;25.10;43.20
23377;DHT22;14353;46.070;13.222;2022-11-15T12:32:58;25.60;41.60
23377;DHT22;14353;46.070;13.222;2022-11-15T12:35:43;25.20;42.40
23377;DHT22;14353;46.070;13.222;2022-11-15T12:47:32;23.50;46.00
23377;DHT22;14353;46.070;13.222;2022-11-15T12:53:47;22.90;47.50
23377;DHT22;14353;46.070;13.222;2022-11-15T12:56:26;22.50;48.00
23377;DHT22;14353;46.070;13.222;2022-11-15T12:59:00;22.40;48.80
23377;DHT22;14353;46.070;13.222;2022-11-15T13:02:11;22.30;49.10
23377;DHT22;14353;46.070;13.222;2022-11-15T13:08:20;22.10;50.00
23377;DHT22;14353;46.070;13.222;2022-11-15T13:10:48;22.00;50.30
23377;DHT22;14353;46.070;13.222;2022-11-15T13:13:44;21.90;50.30
23377;DHT22;14353;46.070;13.222;2022-11-15T13:16:19;21.80;50.60
23377;DHT22;14353;46.070;13.222;2022-11-15T13:18:53;21.70;50.80
23377;DHT22;14353;46.070;13.222;2022-11-15T13:21:23;21.70;51.10
23377;DHT22;14353;46.070;13.222;2022-11-15T13:24:16;21.70;51.10
23377;DHT22;14353;46.070;13.222;2022-11-15T13:27:10;21.60;51.20
23377;DHT22;14353;46.070;13.222;2022-11-15T13:29:43;21.50;51.30
23377;DHT22;14353;46.070;13.222;2022-11-15T13:32:16;21.40;51.50
23377;DHT22;14353;46.070;13.222;2022-11-15T13:35:00;21.40;51.60
23377;DHT22;14353;46.070;13.222;2022-11-15T13:37:31;21.40;51.70
23377;DHT22;14353;46.070;13.222;2022-11-15T13:40:36;21.30;51.90
23377;DHT22;14353;46.070;13.222;2022-11-15T13:43:28;21.30;52.00
23377;DHT22;14353;46.070;13.222;2022-11-15T13:49:31;21.20;52.30
23377;DHT22;14353;46.070;13.222;2022-11-15T13:52:27;21.10;52.50
23377;DHT22;14353;46.070;13.222;2022-11-15T13:55:19;21.10;52.60
23377;DHT22;14353;46.070;13.222;2022-11-15T13:57:59;21.00;52.70
23377;DHT22;14353;46.070;13.222;2022-11-15T14:00:44;21.00;52.90
23377;DHT22;14353;46.070;13.222;2022-11-15T14:03:18;21.00;52.90
23377;DHT22;14353;46.070;13.222;2022-11-15T14:06:09;20.90;53.20
23377;DHT22;14353;46.070;13.222;2022-11-15T14:11:28;20.90;53.40
23377;DHT22;14353;46.070;13.222;2022-11-15T14:17:03;20.90;53.40
23377;DHT22;14353;46.070;13.222;2022-11-15T14:19:39;20.90;53.50
23377;DHT22;14353;46.070;13.222;2022-11-15T14:25:19;20.90;53.70
23377;DHT22;14353;46.070;13.222;2022-11-15T14:30:42;20.80;53.80
23377;DHT22;14353;46.070;13.222;2022-11-15T14:35:44;20.80;54.10
23377;DHT22;14353;46.070;13.222;2022-11-15T14:38:18;20.80;54.20
23377;DHT22;14353;46.070;13.222;2022-11-15T14:40:50;20.80;54.30
23377;DHT22;14353;46.070;13.222;2022-11-15T14:43:19;20.80;54.40
23377;DHT22;14353;46.070;13.222;2022-11-15T14:45:48;20.70;54.40
23377;DHT22;14353;46.070;13.222;2022-11-15T14:48:17;20.70;54.40
23377;DHT22;14353;46.070;13.222;2022-11-15T14:50:46;20.70;54.40
23377;DHT22;14353;46.070;13.222;2022-11-15T14:53:17;20.70;54.50
23377;DHT22;14353;46.070;13.222;2022-11-15T14:56:13;20.70;54.50
23377;DHT22;14353;46.070;13.222;2022-11-15T14:58:47;20.60;54.50
23377;DHT22;14353;46.070;13.222;2022-11-15T15:01:25;20.60;54.50
23377;DHT22;14353;46.070;13.222;2022-11-15T15:03:56;20.60;54.60
23377;DHT22;14353;46.070;13.222;2022-11-15T15:06:29;20.60;54.60
23377;DHT22;14353;46.070;13.222;2022-11-15T15:08:58;20.60;54.60
23377;DHT22;14353;46.070;13.222;2022-11-15T15:11:50;20.60;54.60
23377;DHT22;14353;46.070;13.222;2022-11-15T15:17:09;20.60;54.70
23377;DHT22;14353;46.070;13.222;2022-11-15T15:19:40;20.50;54.70
23377;DHT22;14353;46.070;13.222;2022-11-15T15:22:18;20.50;54.70
23377;DHT22;14353;46.070;13.222;2022-11-15T15:24:56;20.50;54.70
23377;DHT22;14353;46.070;13.222;2022-11-15T15:27:24;20.50;54.70
23377;DHT22;14353;46.070;13.222;2022-11-15T15:29:55;20.50;54.80
23377;DHT22;14353;46.070;13.222;2022-11-15T15:32:51;20.50;54.80
23377;DHT22;14353;46.070;13.222;2022-11-15T15:35:29;20.50;54.80
23377;DHT22;14353;46.070;13.222;2022-11-15T15:38:13;20.50;54.80
23377;DHT22;14353;46.070;13.222;2022-11-15T15:40:44;20.50;54.80
23377;DHT22;14353;46.070;13.222;2022-11-15T15:43:12;20.50;54.90
23377;DHT22;14353;46.070;13.222;2022-11-15T15:45:46;20.40;54.90
23377;DHT22;14353;46.070;13.222;2022-11-15T15:48:16;20.40;54.90
23377;DHT22;14353;46.070;13.222;2022-11-15T15:50:45;20.40;54.90
23377;DHT22;14353;46.070;13.222;2022-11-15T15:53:20;20.40;54.80
23377;DHT22;14353;46.070;13.222;2022-11-15T15:55:48;20.40;54.80
23377;DHT22;14353;46.070;13.222;2022-11-15T15:58:17;20.40;54.80
23377;DHT22;14353;46.070;13.222;2022-11-15T16:01:03;20.40;54.80
23377;DHT22;14353;46.070;13.222;2022-11-15T16:03:32;20.40;54.80
23377;DHT22;14353;46.070;13.222;2022-11-15T16:06:00;20.40;54.90
23377;DHT22;14353;46.070;13.222;2022-11-15T16:08:32;20.30;54.90
23377;DHT22;14353;46.070;13.222;2022-11-15T16:11:08;20.40;54.90
23377;DHT22;14353;46.070;13.222;2022-11-15T16:17:08;20.30;54.90
23377;DHT22;14353;46.070;13.222;2022-11-15T16:19:39;20.30;55.00
23377;DHT22;14353;46.070;13.222;2022-11-15T16:22:12;20.30;55.00
23377;DHT22;14353;46.070;13.222;2022-11-15T16:24:51;20.30;55.00
23377;DHT22;14353;46.070;13.222;2022-11-15T16:27:20;20.30;55.00
23377;DHT22;14353;46.070;13.222;2022-11-15T16:29:52;20.30;55.00
23377;DHT22;14353;46.070;13.222;2022-11-15T16:32:22;20.30;55.00
23377;DHT22;14353;46.070;13.222;2022-11-15T16:34:50;20.30;55.00
23377;DHT22;14353;46.070;13.222;2022-11-15T16:37:22;20.30;55.00
23377;DHT22;14353;46.070;13.222;2022-11-15T16:39:57;20.20;54.90
23377;DHT22;14353;46.070;13.222;2022-11-15T16:42:23;20.20;54.90
23377;DHT22;14353;46.070;13.222;2022-11-15T16:44:52;20.20;55.00
23377;DHT22;14353;46.070;13.222;2022-11-15T16:47:19;20.20;55.00
23377;DHT22;14353;46.070;13.222;2022-11-15T16:52:53;20.20;55.10
23377;DHT22;14353;46.070;13.222;2022-11-15T16:55:39;20.20;55.10
23377;DHT22;14353;46.070;13.222;2022-11-15T16:58:07;20.10;55.10
23377;DHT22;14353;46.070;13.222;2022-11-15T17:00:38;20.10;55.10
23377;DHT22;14353;46.070;13.222;2022-11-15T17:03:04;20.10;55.10
23377;DHT22;14353;46.070;13.222;2022-11-15T17:05:42;20.20;55.20
23377;DHT22;14353;46.070;13.222;2022-11-15T17:08:10;20.10;55.20
23377;DHT22;14353;46.070;13.222;2022-11-15T17:10:43;20.10;55.20
23377;DHT22;14353;46.070;13.222;2022-11-15T17:13:12;20.10;55.20
23377;DHT22;14353;46.070;13.222;2022-11-15T17:15:39;20.10;55.30
23377;DHT22;14353;46.070;13.222;2022-11-15T17:18:11;20.10;55.30
23377;DHT22;14353;46.070;13.222;2022-11-15T17:20:41;20.10;55.30
23377;DHT22;14353;46.070;13.222;2022-11-15T17:23:46;20.10;55.30
23377;DHT22;14353;46.070;13.222;2022-11-15T17:26:24;20.00;55.30
23377;DHT22;14353;46.070;13.222;2022-11-15T17:28:56;20.00;55.30
23377;DHT22;14353;46.070;13.222;2022-11-15T17:31:23;20.00;55.30
23377;DHT22;14353;46.070;13.222;2022-11-15T17:33:59;20.10;55.30
23377;DHT22;14353;46.070;13.222;2022-11-15T17:36:25;20.00;55.30
23377;DHT22;14353;46.070;13.222;2022-11-15T17:38:51;20.00;55.30
23377;DHT22;14353;46.070;13.222;2022-11-15T17:41:17;20.00;55.40
23377;DHT22;14353;46.070;13.222;2022-11-15T17:43:47;20.00;55.40
23377;DHT22;14353;46.070;13.222;2022-11-15T17:46:16;20.00;55.40
23377;DHT22;14353;46.070;13.222;2022-11-15T17:48:44;20.00;55.50
23377;DHT22;14353;46.070;13.222;2022-11-15T17:51:17;20.00;55.50
23377;DHT22;14353;46.070;13.222;2022-11-15T17:53:49;20.00;55.50
23377;DHT22;14353;46.070;13.222;2022-11-15T17:56:17;20.00;55.50
23377;DHT22;14353;46.070;13.222;2022-11-15T17:58:55;19.90;55.60
23377;DHT22;14353;46.070;13.222;2022-11-15T18:01:26;19.90;55.60
23377;DHT22;14353;46.070;13.222;2022-11-15T18:03:53;19.90;55.70
23377;DHT22;14353;46.070;13.222;2022-11-15T18:06:29;19.90;55.70
23377;DHT22;14353;46.070;13.222;2022-11-15T18:08:58;19.90;55.70
23377;DHT22;14353;46.070;13.222;2022-11-15T18:11:32;19.90;55.80
23377;DHT22;14353;46.070;13.222;2022-11-15T18:14:13;19.90;55.80
23377;DHT22;14353;46.070;13.222;2022-11-15T18:16:39;19.90;55.70
23377;DHT22;14353;46.070;13.222;2022-11-15T18:19:06;19.90;55.70
23377;DHT22;14353;46.070;13.222;2022-11-15T18:21:36;19.90;55.70
23377;DHT22;14353;46.070;13.222;2022-11-15T18:24:24;19.90;55.70
23377;DHT22;14353;46.070;13.222;2022-11-15T18:26:53;19.90;55.70
23377;DHT22;14353;46.070;13.222;2022-11-15T18:29:19;19.90;55.70
23377;DHT22;14353;46.070;13.222;2022-11-15T18:31:46;19.90;55.70
23377;DHT22;14353;46.070;13.222;2022-11-15T18:34:14;19.90;55.80
23377;DHT22;14353;46.070;13.222;2022-11-15T18:36:40;19.90;55.80
23377;DHT22;14353;46.070;13.222;2022-11-15T18:39:06;19.90;55.70
23377;DHT22;14353;46.070;13.222;2022-11-15T18:41:32;19.90;55.80
23377;DHT22;14353;46.070;13.222;2022-11-15T18:44:00;19.90;56.40
23377;DHT22;14353;46.070;13.222;2022-11-15T18:46:30;19.90;55.70
23377;DHT22;14353;46.070;13.222;2022-11-15T18:48:57;19.90;55.80
23377;DHT22;14353;46.070;13.222;2022-11-15T18:51:25;19.80;55.70
23377;DHT22;14353;46.070;13.222;2022-11-15T18:53:58;19.90;55.80
23377;DHT22;14353;46.070;13.222;2022-11-15T18:56:25;19.80;55.80
23377;DHT22;14353;46.070;13.222;2022-11-15T18:58:54;19.80;55.80
23377;DHT22;14353;46.070;13.222;2022-11-15T19:01:23;19.80;55.80
23377;DHT22;14353;46.070;13.222;2022-11-15T19:03:51;19.80;55.80
23377;DHT22;14353;46.070;13.222;2022-11-15T19:06:25;19.80;55.80
23377;DHT22;14353;46.070;13.222;2022-11-15T19:08:55;19.80;55.80
23377;DHT22;14353;46.070;13.222;2022-11-15T19:11:28;19.80;55.80
23377;DHT22;14353;46.070;13.222;2022-11-15T19:13:57;19.80;55.80
23377;DHT22;14353;46.070;13.222;2022-11-15T19:16:24;19.80;55.80
23377;DHT22;14353;46.070;13.222;2022-11-15T19:18:55;19.80;55.80
23377;DHT22;14353;46.070;13.222;2022-11-15T19:21:22;19.80;55.80
23377;DHT22;14353;46.070;13.222;2022-11-15T19:23:47;19.70;55.80
23377;DHT22;14353;46.070;13.222;2022-11-15T19:26:14;19.70;55.80
23377;DHT22;14353;46.070;13.222;2022-11-15T19:28:41;19.70;55.90
23377;DHT22;14353;46.070;13.222;2022-11-15T19:31:15;19.70;55.90
23377;DHT22;14353;46.070;13.222;2022-11-15T19:33:42;19.70;55.90
23377;DHT22;14353;46.070;13.222;2022-11-15T19:36:15;19.70;55.90
23377;DHT22;14353;46.070;13.222;2022-11-15T19:38:42;19.70;55.90